Marfret Guyane — FNMV — position and weather

sailwx.info

Track history (hours):
 
Tides and Currents Weather Stations Pressure Air Temp Water Temp Dewpoint Dewpoint Depression Visibility Wind Speed Wind Dir Waves Ship Positions

Marfret Guyane

Last reported at 2016-Jun-26 02:32 UTC. Time now 2016-Jun-26 02:56 UTC.
Position N 10°39' W 061°31'.

Length 170 m; draft 7.4 m.

Type: Ship (hazmat cat A). MMSI: 226324000.

Date/timePositionNaut miles runAvg speedWind from/ knotsBaromVisibWave heightAir tempDewpointWater temp
2016-Jun-26 02:32N 10°39' W 061°31'0 0.0
2016-Jun-26 01:32N 10°39' W 061°31'0 0.0
2016-Jun-26 00:32N 10°39' W 061°31'0 0.0
2016-Jun-25 23:32N 10°39' W 061°31'2 2.6
2016-Jun-25 22:33N 10°38' W 061°34'1111.3
2016-Jun-25 21:33N 10°39' W 061°45'1817.8
2016-Jun-25 20:34N 10°56' W 061°51'1918.6
2016-Jun-25 19:33N 11°14' W 061°56'38519.1
2016-Jun-24 23:22N 17°33' W 063°06'1819.5
2016-Jun-24 22:28N 17°50' W 063°06'11 2.5
2016-Jun-24 18:14N 18°01' W 063°03'0 0.0
2016-Jun-24 15:14N 18°01' W 063°03'0 0.0
2016-Jun-24 10:16N 18°00' W 063°03'1 1.8
2016-Jun-24 09:31N 18°00' W 063°04'3 2.7
2016-Jun-24 08:29N 17°58' W 063°05'  
2016-Jun-19 12:25N 36°19' W 027°39'1619.0
2016-Jun-19 11:33N 36°27' W 027°22'2018.9
2016-Jun-19 10:31N 36°37' W 027°01'1918.9
2016-Jun-19 09:32N 36°48' W 026°42'1919.2
2016-Jun-19 08:34N 36°58' W 026°23'1919.3
2016-Jun-19 07:34N 37°09' W 026°03'1918.6
2016-Jun-19 06:34N 37°19' W 025°43'1918.7
2016-Jun-19 05:34N 37°30' W 025°24'1918.7
2016-Jun-19 04:34N 37°40' W 025°04'1918.7
2016-Jun-19 03:33N 37°51' W 024°45'1918.5
2016-Jun-19 02:34N 38°01' W 024°25'1818.2
2016-Jun-19 01:34N 38°11' W 024°06'2417.8
2016-Jun-19 00:12N 38°26' W 023°41'1117.7
2016-Jun-18 23:33N 38°33' W 023°30'1817.6
2016-Jun-18 22:34N 38°44' W 023°12'1917.7
2016-Jun-18 21:31N 38°56' W 022°54'  
2016-Jun-16 12:31N 49°43' W 003°32'1717.6
2016-Jun-16 11:34N 49°52' W 003°09'1818.2
2016-Jun-16 10:34N 49°60' W 002°44'5717.2
2016-Jun-16 07:16N 49°52' W 001°16'1216.6
2016-Jun-16 06:34N 49°47' W 001°00'1616.1
2016-Jun-16 05:33N 49°40' W 000°38'1616.3
2016-Jun-16 04:33N 49°34' W 000°14'1413.7
2016-Jun-16 03:34N 49°29' E 000°05'3 3.0
2016-Jun-16 02:33N 49°29' E 000°10'  
Track history (hours):
 
Tides and Currents Weather Stations Pressure Air Temp Water Temp Dewpoint Dewpoint Depression Visibility Wind Speed Wind Dir Waves Ship Positions

Marfret Guyane

Last reported at 2016-Jun-26 02:32 UTC. Time now 2016-Jun-26 02:56 UTC.
Position N 10°39' W 061°31'.

Length 170 m; draft 7.4 m.

Type: Ship (hazmat cat A). MMSI: 226324000.

Date/timePositionNaut miles runAvg speedWind from/ knotsBaromVisibWave heightAir tempDewpointWater temp
2016-Jun-26 02:32N 10°39' W 061°31'0 0.0
2016-Jun-26 01:32N 10°39' W 061°31'0 0.0
2016-Jun-26 00:32N 10°39' W 061°31'0 0.0
2016-Jun-25 23:32N 10°39' W 061°31'2 2.6
2016-Jun-25 22:33N 10°38' W 061°34'1111.3
2016-Jun-25 21:33N 10°39' W 061°45'1817.8
2016-Jun-25 20:34N 10°56' W 061°51'1918.6
2016-Jun-25 19:33N 11°14' W 061°56'38519.1
2016-Jun-24 23:22N 17°33' W 063°06'1819.5
2016-Jun-24 22:28N 17°50' W 063°06'11 2.5
2016-Jun-24 18:14N 18°01' W 063°03'0 0.0
2016-Jun-24 15:14N 18°01' W 063°03'0 0.0
2016-Jun-24 10:16N 18°00' W 063°03'1 1.8
2016-Jun-24 09:31N 18°00' W 063°04'3 2.7
2016-Jun-24 08:29N 17°58' W 063°05'  
2016-Jun-19 12:25N 36°19' W 027°39'1619.0
2016-Jun-19 11:33N 36°27' W 027°22'2018.9
2016-Jun-19 10:31N 36°37' W 027°01'1918.9
2016-Jun-19 09:32N 36°48' W 026°42'1919.2
2016-Jun-19 08:34N 36°58' W 026°23'1919.3
2016-Jun-19 07:34N 37°09' W 026°03'1918.6
2016-Jun-19 06:34N 37°19' W 025°43'1918.7
2016-Jun-19 05:34N 37°30' W 025°24'1918.7
2016-Jun-19 04:34N 37°40' W 025°04'1918.7
2016-Jun-19 03:33N 37°51' W 024°45'1918.5
2016-Jun-19 02:34N 38°01' W 024°25'1818.2
2016-Jun-19 01:34N 38°11' W 024°06'2417.8
2016-Jun-19 00:12N 38°26' W 023°41'1117.7
2016-Jun-18 23:33N 38°33' W 023°30'1817.6
2016-Jun-18 22:34N 38°44' W 023°12'1917.7
2016-Jun-18 21:31N 38°56' W 022°54'  
2016-Jun-16 12:31N 49°43' W 003°32'1717.6
2016-Jun-16 11:34N 49°52' W 003°09'1818.2
2016-Jun-16 10:34N 49°60' W 002°44'5717.2
2016-Jun-16 07:16N 49°52' W 001°16'1216.6
2016-Jun-16 06:34N 49°47' W 001°00'1616.1
2016-Jun-16 05:33N 49°40' W 000°38'1616.3
2016-Jun-16 04:33N 49°34' W 000°14'1413.7
2016-Jun-16 03:34N 49°29' E 000°05'3 3.0
2016-Jun-16 02:33N 49°29' E 000°10'  

Dump ship's entire track history